This is the latest recevied weather packets stored in our database for station/object KF6ILA. If no packets are shown the sender has not sent any weather packets the latest 1 day(s).
| Time | Temp. | Humidity | Pressure | Rain* | Wind** | Luminosity | Snow |
|---|---|---|---|---|---|---|---|
| 1836274828 | 16.11° C | 95% | 1015.6 hPa | 0 mm | 3.58 m/s, 242° | 0 W/m² | - |
| 1836274531 | 16.11° C | 96% | 1015.7 hPa | 0 mm | 3.58 m/s, 243° | 0 W/m² | - |
| 1836274375 | 16.67° C | 93% | 1015.8 hPa | 0 mm | 3.58 m/s, 243° | 0 W/m² | - |
| 1836274234 | 16.11° C | 96% | 1015.7 hPa | 0 mm | 3.13 m/s, 238° | 0 W/m² | - |
| 1778041425 | 5° C | 97% | 1013 hPa | 0 mm | 7.15 m/s, 257° | 0 W/m² | - |
| 1778041128 | 5° C | 97% | 1013 hPa | 0 mm | 6.71 m/s, 256° | 0 W/m² | - |
| 1778040831 | 5° C | 97% | 1012.9 hPa | 0 mm | 7.15 m/s, 256° | 0 W/m² | - |
| 1778040534 | 5° C | 97% | 1012.8 hPa | 0 mm | 6.26 m/s, 262° | 0 W/m² | - |
| 1778039973 | 5° C | 97% | 1012.6 hPa | 0 mm | 7.15 m/s, 261° | 0 W/m² | - |
| 1778039940 | 5° C | 97% | 1012.6 hPa | 0 mm | 7.15 m/s, 261° | 0 W/m² | - |
| 1778039643 | 5° C | 97% | 1012.6 hPa | 0 mm | 7.15 m/s, 258° | 0 W/m² | - |
| 1778039396 | 5° C | 97% | 1012.6 hPa | 0 mm | 6.71 m/s, 255° | 0 W/m² | - |
| 1778039346 | 5° C | 97% | 1012.6 hPa | 0 mm | 6.71 m/s, 255° | 0 W/m² | - |
| 1778039049 | 5° C | 97% | 1012.4 hPa | 0 mm | 7.15 m/s, 256° | 0 W/m² | - |
| 1778038786 | 5° C | 97% | 1012.3 hPa | 0 mm | 7.6 m/s, 257° | 0 W/m² | - |
| 1778038752 | 5° C | 97% | 1012.3 hPa | 0 mm | 7.6 m/s, 257° | 0 W/m² | - |
| 1778038496 | 5° C | 97% | 1012.4 hPa | 0 mm | 5.81 m/s, 257° | 0 W/m² | - |
| 1778038456 | 5° C | 97% | 1012.4 hPa | 0 mm | 5.81 m/s, 257° | 0 W/m² | - |
| 1778038158 | 5.56° C | 97% | 1012.3 hPa | 0 mm | 6.26 m/s, 250° | 0 W/m² | - |
| 1778037861 | 5.56° C | 96% | 1012.2 hPa | 0 mm | 6.26 m/s, 259° | 0 W/m² | - |
| 1778037267 | 5.56° C | 96% | 1012.1 hPa | 0 mm | 6.71 m/s, 269° | 0 W/m² | - |
| 1778036970 | 5.56° C | 96% | 1012.2 hPa | 0 mm | 5.81 m/s, 270° | 0 W/m² | - |
| 1778036376 | 5.56° C | 95% | 1012.1 hPa | 0 mm | 6.26 m/s, 260° | 0 W/m² | - |
| 1778036079 | 5.56° C | 95% | 1011.9 hPa | 0 mm | 5.81 m/s, 256° | 0 W/m² | - |
| 1778035782 | 5.56° C | 95% | 1011.9 hPa | 0 mm | 5.36 m/s, 260° | 0 W/m² | - |
* Rain latest hour (hover to see other rain measurements)
** Current wind speed in m/s (hover to see current wind gust speed)